Kuujjuarapik Airport
CYGW : now visible

Airfield :











YOU CAN JOIN US ON...

 
LOGIN :

Register | Disclaimer

   EN    FR    IT 

 









Legend :    VFR   Marginal VFR   IFR   Intensive IFR   Very Intensive IFR
Visi :
Ceiling :
>= 8 km
>= 3000ft
5 to 8 km
1000 to 3000 ft
1500m to 5 km
500 to 1000 ft
800 to 1500m
200 to 500 ft
< 800m
< 200 ft
Symbols :   Thunderstorms  Fog  Heavy snow  Heavy precipitations  Wind > 20 kt






- Airport Elevation : 34 ft
- IATA code : YGW


CYGW - Kuujjuarapik

CURRENT METAR :
  • 310650Z AUTO 26008KT 6SM -SN OVC008 M02/M02 A2996 RMK SLP147

EXPIRED METARs :
  • 310620Z AUTO 27008KT 7SM -SN OVC006 M02/M02 A2995 RMK SLP146
  • 310616Z AUTO 26008KT 9SM OVC006 M02/M02 A2995 RMK SLP146
  • 310602Z AUTO 25006KT 9SM -SN OVC008 M02/M02 A2996 RMK SLP147
  • 310517Z AUTO 26007KT 9SM BKN008 BKN015 OVC024 M02/M02 A2996 RMK SLP148
  • 310509Z AUTO 26007KT 6SM -SN BKN006 BKN010 BKN015 OVC024 M02/M02 A2996 RMK SLP148
  • 310457Z AUTO 25006KT 5SM -SN SCT006 BKN014 OVC024 M02/M02 A2996 RMK SLP148
  • 310435Z AUTO 24008KT 9SM -SN BKN008 BKN014 BKN019 OVC024 M01/M02 A2996 RMK SLP149
  • 310423Z AUTO 25006KT 9SM BKN008 OVC014 M01/M02 A2996 RMK SLP149
  • 310414Z AUTO 25006KT 9SM -SN BKN006 OVC014 M01/M02 A2996 RMK SLP149

TAF TAF CYGW
Valid from the 31 at 06:00 until the 31 at 18:00 UTC


310530Z 3106/3118 27009KT P6SM FEW006 SCT015 BKN025
TEMPO 3106/3118 4SM -SN BR BKN006 OVC015 RMK FCST BASED ON AUTO OBS. NXT FCST BY 311200Z
CZUL FIR / North America



MET'MAP, your aeronautical weather chart ! - Copyright ORBIFLY December 2007 - Disclaimer

ORBIFLY MET'MAP TEAM :

Programming & Development : Alexandra Zaïnal
Concept & original design : Baudouin d'Aumeries
Assistance for programming : Marc-Olivier Méhu
Technical & hardware support : Manuel Goepfert

Contact : metmap@orbifly.com




SOURCES & CREDITS :

   NOAA       Earth
Advisory